createdAt,value
2018-11-10T00:01:43.656Z,19.30
2018-11-10T00:04:11.921Z,19.00
2018-11-10T00:06:40.147Z,18.37
2018-11-10T00:09:09.238Z,18.77
2018-11-10T00:11:37.424Z,18.82
2018-11-10T00:14:05.725Z,18.77
2018-11-10T00:16:34.242Z,19.07
2018-11-10T00:19:02.355Z,19.00
2018-11-10T00:21:30.494Z,19.07
2018-11-10T00:23:58.668Z,18.53
2018-11-10T00:26:27.177Z,18.60
2018-11-10T00:28:55.333Z,19.60
2018-11-10T00:31:23.571Z,19.70
2018-11-10T00:33:51.760Z,19.20
2018-11-10T00:36:21.240Z,19.48
2018-11-10T00:38:49.408Z,20.00
2018-11-10T00:41:17.596Z,19.82
2018-11-10T00:43:45.805Z,19.40
2018-11-10T00:46:14.301Z,19.07
2018-11-10T00:48:42.499Z,18.80
2018-11-10T00:51:10.671Z,19.35
2018-11-10T00:53:38.854Z,19.97
2018-11-10T00:56:07.508Z,19.77
2018-11-10T00:58:35.690Z,20.08
2018-11-10T01:01:03.942Z,19.82
2018-11-10T01:03:32.101Z,20.70
2018-11-10T01:06:00.352Z,20.10
2018-11-10T01:08:28.525Z,19.02
2018-11-10T01:10:56.711Z,20.32
2018-11-10T01:13:24.853Z,20.02
2018-11-10T01:15:53.057Z,20.03
2018-11-10T01:18:21.231Z,20.13
2018-11-10T01:20:49.394Z,20.55
2018-11-10T01:23:17.580Z,19.90
2018-11-10T01:25:45.804Z,20.43
2018-11-10T01:28:14.515Z,20.10
2018-11-10T01:30:42.652Z,19.37
2018-11-10T01:33:10.816Z,19.25
2018-11-10T01:35:39.059Z,20.15
2018-11-10T01:38:07.243Z,19.17
2018-11-10T01:43:08.522Z,19.57
2018-11-10T01:45:37.392Z,19.07
2018-11-10T01:48:05.975Z,19.27
2018-11-10T01:50:34.224Z,19.77
2018-11-10T01:53:02.392Z,19.65
2018-11-10T01:55:30.554Z,20.87
2018-11-10T01:57:58.703Z,20.10
2018-11-10T02:00:26.885Z,18.83
2018-11-10T02:02:55.052Z,19.57
2018-11-10T02:05:23.231Z,18.82
2018-11-10T02:07:51.416Z,19.33
2018-11-10T02:10:19.578Z,19.20
2018-11-10T02:12:47.730Z,19.52
2018-11-10T02:15:16.797Z,19.97
2018-11-10T02:17:51.407Z,20.37
2018-11-10T02:20:19.590Z,20.70
2018-11-10T02:22:47.818Z,20.17
2018-11-10T02:25:16.089Z,20.03
2018-11-10T02:27:44.251Z,21.10
2018-11-10T02:30:12.700Z,19.97
2018-11-10T02:32:40.856Z,20.40
2018-11-10T02:35:09.343Z,19.80
2018-11-10T02:37:38.240Z,19.70
2018-11-10T02:40:07.493Z,19.73
2018-11-10T02:42:35.632Z,19.82
2018-11-10T02:45:03.789Z,21.20
2018-11-10T02:47:31.964Z,20.50
2018-11-10T02:50:00.171Z,19.45
2018-11-10T02:52:28.371Z,20.15
2018-11-10T02:54:57.082Z,18.77
2018-11-10T02:57:25.245Z,20.75
2018-11-10T02:59:53.379Z,19.80
2018-11-10T03:02:21.587Z,19.63
2018-11-10T03:04:49.764Z,20.27
2018-11-10T03:07:18.037Z,20.30
2018-11-10T03:09:46.205Z,20.70
2018-11-10T03:12:14.380Z,20.50
2018-11-10T03:14:42.711Z,21.37
2018-11-10T03:17:10.856Z,20.53
2018-11-10T03:19:39.691Z,20.10
2018-11-10T03:22:07.875Z,21.12
2018-11-10T03:24:36.056Z,21.47
2018-11-10T03:27:04.576Z,20.62
2018-11-10T03:29:32.793Z,19.40
2018-11-10T03:32:00.968Z,21.43
2018-11-10T03:34:29.149Z,21.07
2018-11-10T03:36:57.295Z,20.77
2018-11-10T03:39:25.436Z,20.48
2018-11-10T03:41:53.575Z,20.17
2018-11-10T03:44:21.722Z,20.63
2018-11-10T03:46:49.876Z,21.57
2018-11-10T03:49:18.012Z,20.77
2018-11-10T03:51:46.172Z,20.77
2018-11-10T03:54:14.341Z,21.82
2018-11-10T03:56:42.483Z,21.75
2018-11-10T03:59:10.635Z,21.55
2018-11-10T04:01:38.809Z,20.48
2018-11-10T04:04:07.006Z,20.08
2018-11-10T04:06:35.203Z,21.27
2018-11-10T04:09:03.743Z,21.15
2018-11-10T04:11:31.887Z,20.30
2018-11-10T04:14:00.289Z,20.43
2018-11-10T04:16:28.476Z,20.23
2018-11-10T04:18:56.611Z,20.17
2018-11-10T04:21:24.751Z,19.17
2018-11-10T04:23:52.945Z,19.23
2018-11-10T04:26:21.093Z,19.40
2018-11-10T04:28:49.236Z,19.97
2018-11-10T04:31:17.445Z,20.43
2018-11-10T04:33:45.677Z,19.53
2018-11-10T04:36:13.839Z,19.52
2018-11-10T04:38:41.996Z,19.23
2018-11-10T04:41:10.179Z,18.77
2018-11-10T04:43:38.374Z,18.47
2018-11-10T04:46:06.575Z,18.52
2018-11-10T04:48:34.711Z,17.98
2018-11-10T04:51:02.852Z,17.82
2018-11-10T04:53:30.995Z,18.70
2018-11-10T04:55:59.274Z,16.57
2018-11-10T04:58:27.480Z,15.95
2018-11-10T05:00:55.631Z,16.23
2018-11-10T05:03:23.780Z,15.20
2018-11-10T05:05:51.955Z,15.00
2018-11-10T05:08:20.120Z,14.63
2018-11-10T05:10:48.260Z,13.95
2018-11-10T05:13:16.415Z,14.68
2018-11-10T05:15:44.613Z,15.75
2018-11-10T05:18:12.746Z,14.45
2018-11-10T05:20:40.896Z,14.98
2018-11-10T05:23:09.058Z,14.53
2018-11-10T05:25:37.248Z,16.15
2018-11-10T05:28:05.500Z,15.50
2018-11-10T05:30:33.659Z,14.85
2018-11-10T05:33:01.869Z,15.08
2018-11-10T05:35:30.020Z,15.25
2018-11-10T05:37:58.191Z,14.75
2018-11-10T05:40:26.367Z,14.18
2018-11-10T05:42:54.502Z,13.72
2018-11-10T05:45:22.723Z,13.73
2018-11-10T05:47:50.881Z,13.85
2018-11-10T05:50:25.845Z,17.27
2018-11-10T05:52:54.447Z,15.40
2018-11-10T05:55:22.683Z,14.30
2018-11-10T05:57:50.829Z,15.50
2018-11-10T06:00:19.724Z,15.20
2018-11-10T06:02:47.899Z,14.43
2018-11-10T06:05:16.080Z,14.98
2018-11-10T06:07:44.271Z,14.65
2018-11-10T06:10:12.836Z,14.23
2018-11-10T06:12:41.332Z,15.03
2018-11-10T06:15:10.103Z,17.70
2018-11-10T06:17:38.489Z,15.40
2018-11-10T06:20:07.507Z,15.43
2018-11-10T06:22:35.653Z,15.65
2018-11-10T06:25:03.842Z,16.85
2018-11-10T06:27:32.005Z,15.93
2018-11-10T06:30:00.165Z,15.55
2018-11-10T06:32:29.024Z,14.73
2018-11-10T06:34:57.591Z,14.87
2018-11-10T06:37:26.022Z,15.05
2018-11-10T06:39:54.441Z,14.10
2018-11-10T06:42:22.914Z,16.23
2018-11-10T06:44:51.949Z,14.87
2018-11-10T06:47:20.358Z,14.70
2018-11-10T06:49:48.764Z,13.98
2018-11-10T06:52:17.204Z,14.73
2018-11-10T06:54:46.206Z,14.95
2018-11-10T06:57:14.615Z,14.13
2018-11-10T06:59:43.064Z,12.53
2018-11-10T07:02:11.473Z,13.78
2018-11-10T07:04:39.889Z,12.85
2018-11-10T07:07:08.291Z,13.28
2018-11-10T07:09:36.756Z,13.13
2018-11-10T07:12:05.649Z,11.53
2018-11-10T07:14:34.053Z,11.55
2018-11-10T07:17:02.546Z,10.10
2018-11-10T07:19:31.004Z,11.28
2018-11-10T07:21:59.434Z,11.28
2018-11-10T07:24:27.841Z,11.43
2018-11-10T07:26:56.228Z,12.05
2018-11-10T07:29:25.791Z,12.25
2018-11-10T07:31:54.323Z,13.35
2018-11-10T07:34:22.706Z,13.07
2018-11-10T07:36:51.074Z,12.88
2018-11-10T07:39:19.559Z,13.37
2018-11-10T07:41:47.964Z,12.73
2018-11-10T07:44:16.456Z,12.75
2018-11-10T07:46:44.900Z,13.50
2018-11-10T07:49:13.733Z,14.07
2018-11-10T07:51:42.150Z,14.00
2018-11-10T07:54:10.547Z,13.98
2018-11-10T07:56:39.069Z,14.35
2018-11-10T07:59:07.740Z,12.85
2018-11-10T08:01:36.189Z,12.87
2018-11-10T08:04:04.842Z,12.80
2018-11-10T08:06:33.380Z,12.88
2018-11-10T08:09:01.854Z,12.25
2018-11-10T08:11:30.253Z,12.10
2018-11-10T08:13:58.718Z,11.60
2018-11-10T08:16:27.647Z,11.73
2018-11-10T08:18:57.007Z,10.98
2018-11-10T08:21:25.490Z,12.82
2018-11-10T08:23:53.898Z,12.07
2018-11-10T08:26:23.316Z,11.88
2018-11-10T08:28:51.751Z,12.65
2018-11-10T08:31:20.345Z,12.10
2018-11-10T08:33:49.317Z,11.70
2018-11-10T08:36:17.747Z,11.93
2018-11-10T08:38:46.157Z,11.83
2018-11-10T08:41:14.686Z,11.88
2018-11-10T08:43:43.218Z,12.20
2018-11-10T08:46:11.707Z,13.05
2018-11-10T08:48:40.548Z,12.40
2018-11-10T08:51:09.932Z,13.75
2018-11-10T08:53:38.362Z,12.33
2018-11-10T08:56:07.394Z,11.63
2018-11-10T08:58:35.788Z,12.18
2018-11-10T09:01:04.256Z,12.93
2018-11-10T09:03:32.670Z,11.93
2018-11-10T09:06:01.250Z,12.40
2018-11-10T09:08:29.811Z,12.50
2018-11-10T09:10:58.214Z,11.95
2018-11-10T09:13:26.639Z,12.68
2018-11-10T09:15:55.029Z,12.28
2018-11-10T09:18:23.464Z,11.73
2018-11-10T09:20:51.865Z,12.10
2018-11-10T09:23:20.279Z,13.48
2018-11-10T09:25:48.928Z,11.50
2018-11-10T09:28:17.451Z,11.18
2018-11-10T09:30:45.924Z,11.80
2018-11-10T09:33:14.275Z,12.03
2018-11-10T09:35:42.701Z,12.00
2018-11-10T09:38:11.093Z,12.80
2018-11-10T09:40:39.533Z,12.35
2018-11-10T09:43:08.568Z,12.47
2018-11-10T09:45:37.154Z,13.32
2018-11-10T09:48:05.757Z,12.33
2018-11-10T09:50:34.224Z,13.50
2018-11-10T09:53:02.717Z,13.25
2018-11-10T09:55:31.154Z,13.53
2018-11-10T09:57:59.563Z,13.43
2018-11-10T10:00:28.157Z,13.53
2018-11-10T10:02:57.502Z,13.13
2018-11-10T10:05:25.936Z,13.25
2018-11-10T10:07:54.350Z,14.10
2018-11-10T10:10:22.833Z,14.73
2018-11-10T10:12:51.340Z,14.63
2018-11-10T10:15:20.057Z,14.60
2018-11-10T10:17:49.481Z,14.13
2018-11-10T10:20:19.174Z,14.10
2018-11-10T10:22:48.512Z,13.43
2018-11-10T10:25:17.630Z,14.53
2018-11-10T10:27:47.098Z,13.95
2018-11-10T10:30:17.531Z,14.30
2018-11-10T10:32:46.937Z,13.20
2018-11-10T10:35:15.791Z,14.65
2018-11-10T10:37:45.634Z,14.30
2018-11-10T10:40:14.870Z,13.72
2018-11-10T10:42:43.864Z,13.43
2018-11-10T10:45:13.751Z,15.43
2018-11-10T10:47:42.605Z,13.72
2018-11-10T10:50:12.653Z,12.98
2018-11-10T10:52:41.105Z,14.45
2018-11-10T10:55:10.835Z,13.70
2018-11-10T10:57:39.801Z,14.33
2018-11-10T11:00:16.273Z,13.75
2018-11-10T11:02:50.173Z,13.83
2018-11-10T11:05:24.771Z,14.73
2018-11-10T11:07:53.628Z,13.55
2018-11-10T11:10:22.720Z,13.62
2018-11-10T11:12:51.365Z,13.75
2018-11-10T11:15:20.420Z,13.43
2018-11-10T11:17:48.796Z,13.65
2018-11-10T11:20:17.225Z,13.55
2018-11-10T11:22:46.000Z,14.38
2018-11-10T11:25:14.834Z,32.38
2018-11-10T11:27:43.268Z,14.75
2018-11-10T11:30:11.834Z,14.68
2018-11-10T11:32:40.270Z,14.65
2018-11-10T11:35:10.679Z,15.25
2018-11-10T11:37:39.825Z,14.60
2018-11-10T11:40:10.144Z,14.43
2018-11-10T11:42:38.598Z,15.48
2018-11-10T11:45:08.700Z,13.88
2018-11-10T11:47:37.156Z,13.10
2018-11-10T11:50:07.161Z,13.03
2018-11-10T11:52:35.665Z,11.63
2018-11-10T11:55:04.275Z,11.83
2018-11-10T11:57:32.841Z,12.15
2018-11-10T12:00:01.322Z,12.47
2018-11-10T12:02:30.350Z,12.25
2018-11-10T12:04:58.861Z,11.28
2018-11-10T12:07:27.406Z,11.25
2018-11-10T12:09:55.801Z,11.85
2018-11-10T12:12:24.309Z,10.93
2018-11-10T12:14:52.969Z,10.60
2018-11-10T12:17:21.556Z,10.75
2018-11-10T12:19:49.979Z,10.85
2018-11-10T12:22:18.396Z,11.83
2018-11-10T12:24:46.814Z,10.88
2018-11-10T12:27:15.340Z,10.10
2018-11-10T12:29:43.739Z,11.00
2018-11-10T12:32:12.217Z,9.80
2018-11-10T12:34:40.674Z,9.63
2018-11-10T12:37:09.076Z,9.78
2018-11-10T12:39:38.219Z,9.70
2018-11-10T12:42:06.997Z,9.33
2018-11-10T12:44:35.488Z,9.88
2018-11-10T12:47:04.117Z,9.60
2018-11-10T12:49:32.505Z,10.08
2018-11-10T12:52:01.282Z,10.10
2018-11-10T12:54:29.726Z,10.43
2018-11-10T12:56:58.244Z,9.78
2018-11-10T12:59:27.260Z,11.18
2018-11-10T13:01:56.346Z,10.50
2018-11-10T13:04:24.844Z,10.53
2018-11-10T13:06:53.449Z,9.93
2018-11-10T13:09:21.859Z,10.48
2018-11-10T13:11:50.383Z,10.98
2018-11-10T13:14:18.859Z,11.08
2018-11-10T13:16:47.321Z,10.55
2018-11-10T13:19:15.831Z,10.63
2018-11-10T13:21:44.266Z,11.35
2018-11-10T13:24:12.765Z,10.63
2018-11-10T13:26:41.181Z,11.08
2018-11-10T13:29:09.591Z,11.25
2018-11-10T13:31:38.201Z,11.57
2018-11-10T13:34:06.607Z,11.53
2018-11-10T13:36:35.240Z,10.68
2018-11-10T13:39:05.503Z,11.15
2018-11-10T13:41:33.920Z,11.80
2018-11-10T13:44:02.502Z,11.22
2018-11-10T13:46:30.850Z,11.83
2018-11-10T13:48:59.385Z,11.63
2018-11-10T13:51:28.268Z,11.40
2018-11-10T13:53:57.251Z,11.80
2018-11-10T13:56:25.715Z,11.10
2018-11-10T13:58:54.277Z,12.00
2018-11-10T14:01:22.676Z,13.18
2018-11-10T14:03:51.292Z,12.73
2018-11-10T14:06:19.777Z,15.93
2018-11-10T14:08:48.225Z,12.35
2018-11-10T14:11:17.124Z,11.25
2018-11-10T14:13:45.576Z,11.40
2018-11-10T14:16:14.093Z,11.55
2018-11-10T14:18:42.594Z,11.65
2018-11-10T14:21:11.056Z,11.08
2018-11-10T14:23:39.785Z,45.40
2018-11-10T14:26:08.280Z,12.75
2018-11-10T14:28:36.826Z,10.40
2018-11-10T14:31:05.360Z,10.10
2018-11-10T14:33:33.942Z,9.35
2018-11-10T14:36:02.536Z,9.88
2018-11-10T14:38:31.060Z,10.48
2018-11-10T14:40:59.479Z,10.18
2018-11-10T14:43:27.980Z,10.25
2018-11-10T14:45:56.465Z,9.33
2018-11-10T14:48:24.948Z,8.98
2018-11-10T14:50:53.380Z,9.38
2018-11-10T14:53:22.370Z,9.88
2018-11-10T14:55:50.815Z,9.33
2018-11-10T14:58:19.280Z,9.68
2018-11-10T15:00:47.769Z,9.15
2018-11-10T15:03:16.267Z,10.08
2018-11-10T15:05:44.823Z,9.95
2018-11-10T15:08:13.327Z,8.95
2018-11-10T15:10:41.744Z,9.03
2018-11-10T15:13:10.309Z,9.63
2018-11-10T15:15:38.757Z,8.50
2018-11-10T15:18:07.411Z,8.38
2018-11-10T15:20:35.817Z,8.55
2018-11-10T15:23:04.526Z,8.95
2018-11-10T15:25:33.048Z,8.50
2018-11-10T15:28:01.474Z,8.63
2018-11-10T15:30:29.982Z,7.92
2018-11-10T15:32:58.405Z,8.88
2018-11-10T15:35:26.805Z,9.00
2018-11-10T15:37:55.209Z,8.43
2018-11-10T15:40:23.903Z,8.38
2018-11-10T15:42:52.384Z,8.75
2018-11-10T15:45:21.380Z,9.25
2018-11-10T15:47:50.881Z,9.73
2018-11-10T15:50:19.627Z,9.05
2018-11-10T15:52:48.165Z,9.58
2018-11-10T15:55:16.757Z,9.30
2018-11-10T15:57:45.345Z,9.25
2018-11-10T16:00:16.075Z,9.93
2018-11-10T16:02:44.606Z,9.70
2018-11-10T16:05:13.886Z,9.13
2018-11-10T16:07:42.876Z,11.35
2018-11-10T16:10:12.351Z,10.40
2018-11-10T16:12:41.204Z,9.65
2018-11-10T16:15:12.867Z,10.70
2018-11-10T16:17:41.687Z,10.15
2018-11-10T16:20:13.132Z,10.43
2018-11-10T16:22:42.233Z,10.75
2018-11-10T16:25:11.160Z,10.00
2018-11-10T16:27:39.738Z,9.33
2018-11-10T16:30:11.004Z,9.50
2018-11-10T16:32:40.408Z,9.25
2018-11-10T16:35:09.313Z,10.08
2018-11-10T16:37:37.832Z,9.25
2018-11-10T16:40:09.985Z,9.15
2018-11-10T16:42:40.452Z,9.28
2018-11-10T16:45:15.921Z,10.35
2018-11-10T16:47:44.543Z,9.40
2018-11-10T16:50:18.433Z,9.43
2018-11-10T16:52:46.969Z,10.23
2018-11-10T16:55:15.420Z,9.45
2018-11-10T16:57:43.885Z,9.83
2018-11-10T17:00:17.745Z,10.85
2018-11-10T17:02:46.580Z,10.63
2018-11-10T17:05:15.755Z,10.40
2018-11-10T17:07:44.213Z,9.30
2018-11-10T17:10:13.920Z,9.45
2018-11-10T17:12:43.014Z,10.48
2018-11-10T17:15:11.610Z,9.70
2018-11-10T17:17:40.192Z,9.45
2018-11-10T17:20:11.008Z,10.18
2018-11-10T17:22:39.861Z,9.63
2018-11-10T17:25:09.415Z,12.28
2018-11-10T17:27:38.093Z,10.82
2018-11-10T17:30:09.553Z,10.40
2018-11-10T17:32:38.219Z,10.63
2018-11-10T17:35:07.416Z,10.05
2018-11-10T17:37:36.232Z,10.93
2018-11-10T17:40:05.653Z,10.30
2018-11-10T17:42:34.254Z,10.93
2018-11-10T17:45:02.889Z,10.55
2018-11-10T17:47:31.487Z,11.03
2018-11-10T17:50:00.581Z,10.95
2018-11-10T17:52:29.626Z,11.45
2018-11-10T17:54:58.264Z,10.63
2018-11-10T17:57:27.221Z,11.00
2018-11-10T17:59:55.670Z,11.03
2018-11-10T18:02:24.568Z,10.72
2018-11-10T18:04:53.311Z,11.40
2018-11-10T18:07:21.886Z,10.70
2018-11-10T18:09:50.317Z,11.10
2018-11-10T18:12:19.361Z,10.20
2018-11-10T18:14:47.956Z,9.78
2018-11-10T18:17:16.496Z,9.65
2018-11-10T18:19:45.164Z,9.68
2018-11-10T18:22:13.592Z,10.88
2018-11-10T18:24:42.132Z,11.03
2018-11-10T18:27:10.590Z,10.75
2018-11-10T18:29:39.100Z,10.65
2018-11-10T18:32:07.725Z,10.58
2018-11-10T18:34:36.168Z,11.18
2018-11-10T18:37:04.680Z,10.68
2018-11-10T18:39:33.228Z,10.55
2018-11-10T18:42:01.752Z,11.18
2018-11-10T18:44:30.281Z,10.75
2018-11-10T18:46:59.298Z,12.70
2018-11-10T18:49:28.405Z,12.05
2018-11-10T18:51:57.465Z,12.50
2018-11-10T18:54:26.116Z,12.07
2018-11-10T18:56:54.736Z,12.10
2018-11-10T18:59:23.353Z,11.25
2018-11-10T19:01:51.832Z,11.57
2018-11-10T19:04:20.349Z,12.00
2018-11-10T19:06:48.837Z,11.28
2018-11-10T19:09:17.319Z,11.35
2018-11-10T19:11:45.792Z,12.15
2018-11-10T19:14:14.354Z,12.95
2018-11-10T19:16:42.845Z,12.05
2018-11-10T19:19:11.449Z,11.38
2018-11-10T19:21:39.920Z,12.25
2018-11-10T19:24:08.511Z,11.73
2018-11-10T19:26:37.081Z,11.30
2018-11-10T19:29:05.780Z,11.73
2018-11-10T19:31:34.222Z,12.60
2018-11-10T19:34:03.165Z,11.48
2018-11-10T19:36:31.650Z,12.03
2018-11-10T19:39:00.104Z,12.73
2018-11-10T19:41:28.737Z,12.80
2018-11-10T19:43:57.206Z,13.53
2018-11-10T19:46:25.781Z,12.80
2018-11-10T19:48:54.335Z,13.50
2018-11-10T19:51:23.072Z,11.85
2018-11-10T19:53:51.506Z,11.08
2018-11-10T19:56:20.448Z,12.23
2018-11-10T19:58:48.887Z,11.22
2018-11-10T20:01:17.454Z,11.90
2018-11-10T20:03:46.011Z,10.88
2018-11-10T20:06:14.464Z,10.75
2018-11-10T20:08:42.971Z,10.50
2018-11-10T20:11:11.605Z,10.28
2018-11-10T20:13:40.189Z,10.40
2018-11-10T20:16:08.777Z,10.20
2018-11-10T20:18:37.226Z,10.15
2018-11-10T20:21:05.848Z,10.35
2018-11-10T20:23:34.405Z,10.03
2018-11-10T20:26:02.965Z,10.00
2018-11-10T20:28:31.471Z,10.10
2018-11-10T20:31:00.104Z,10.10
2018-11-10T20:33:28.628Z,9.60
2018-11-10T20:35:57.156Z,9.78
2018-11-10T20:38:26.162Z,9.43
2018-11-10T20:40:54.841Z,9.90
2018-11-10T20:43:23.386Z,10.05
2018-11-10T20:45:51.888Z,11.25
2018-11-10T20:48:21.026Z,9.65
2018-11-10T20:50:50.087Z,11.20
2018-11-10T20:53:19.129Z,10.03
2018-11-10T20:55:47.617Z,9.38
2018-11-10T20:58:16.236Z,9.40
2018-11-10T21:00:45.357Z,9.33
2018-11-10T21:03:13.770Z,10.18
2018-11-10T21:05:42.581Z,10.32
2018-11-10T21:08:11.094Z,10.03
2018-11-10T21:10:39.668Z,10.08
2018-11-10T21:13:09.044Z,10.88
2018-11-10T21:15:37.548Z,10.58
2018-11-10T21:18:06.681Z,10.48
2018-11-10T21:20:35.130Z,10.45
2018-11-10T21:23:03.710Z,11.00
2018-11-10T21:25:32.281Z,10.38
2018-11-10T21:28:01.432Z,10.50
2018-11-10T21:30:29.877Z,10.08
2018-11-10T21:32:58.809Z,10.35
2018-11-10T21:35:27.348Z,10.28
2018-11-10T21:37:55.829Z,10.45
2018-11-10T21:40:27.152Z,10.00
2018-11-10T21:42:55.769Z,10.70
2018-11-10T21:45:24.326Z,11.28
2018-11-10T21:47:52.905Z,11.03
2018-11-10T21:50:21.533Z,11.25
2018-11-10T21:52:50.439Z,10.78
2018-11-10T21:55:19.975Z,10.72
2018-11-10T21:57:49.025Z,11.28
2018-11-10T22:00:19.476Z,9.43
2018-11-10T22:02:48.365Z,9.85
2018-11-10T22:05:17.024Z,9.65
2018-11-10T22:07:45.561Z,9.80
2018-11-10T22:10:15.226Z,9.08
2018-11-10T22:12:44.032Z,8.85
2018-11-10T22:15:16.477Z,11.73
2018-11-10T22:17:45.600Z,8.93
2018-11-10T22:20:15.388Z,8.45
2018-11-10T22:22:44.030Z,9.08
2018-11-10T22:25:13.241Z,9.13
2018-11-10T22:27:42.986Z,9.75
2018-11-10T22:30:13.647Z,8.83
2018-11-10T22:32:42.688Z,9.48
2018-11-10T22:35:11.403Z,8.50
2018-11-10T22:37:40.104Z,9.58
2018-11-10T22:40:11.773Z,9.40
2018-11-10T22:42:40.832Z,9.35
2018-11-10T22:45:11.051Z,10.00
2018-11-10T22:47:40.521Z,11.00
2018-11-10T22:50:11.410Z,12.03
2018-11-10T22:52:40.077Z,10.23
2018-11-10T22:55:09.332Z,9.68
2018-11-10T22:57:37.849Z,10.43
2018-11-10T23:00:09.449Z,10.25
2018-11-10T23:02:38.269Z,10.40
2018-11-10T23:05:07.356Z,10.45
2018-11-10T23:07:36.021Z,10.68
2018-11-10T23:10:05.435Z,10.68
2018-11-10T23:12:34.044Z,11.03
2018-11-10T23:15:02.609Z,11.43
2018-11-10T23:17:31.541Z,11.88
2018-11-10T23:20:00.298Z,11.70
2018-11-10T23:22:28.876Z,11.90
2018-11-10T23:24:57.669Z,12.45
2018-11-10T23:27:26.316Z,11.97
2018-11-10T23:29:56.052Z,11.33
2018-11-10T23:32:24.638Z,11.78
2018-11-10T23:34:53.568Z,11.22
2018-11-10T23:37:22.570Z,11.85
2018-11-10T23:39:51.129Z,10.70
2018-11-10T23:42:19.552Z,12.45
2018-11-10T23:44:48.555Z,12.25
2018-11-10T23:47:17.688Z,11.60
2018-11-10T23:49:46.220Z,11.60
2018-11-10T23:52:14.677Z,12.43
2018-11-10T23:54:44.210Z,12.13
2018-11-10T23:57:12.621Z,13.20
2018-11-10T23:59:41.226Z,12.50
